createdAt,value
2023-06-29T00:01:55.195Z,18.00
2023-06-29T00:04:21.869Z,18.00
2023-06-29T00:06:48.885Z,17.90
2023-06-29T00:09:22.764Z,18.00
2023-06-29T00:11:49.428Z,18.00
2023-06-29T00:14:16.181Z,18.00
2023-06-29T00:16:44.200Z,18.00
2023-06-29T00:19:13.482Z,18.00
2023-06-29T00:21:40.244Z,18.00
2023-06-29T00:24:09.460Z,18.00
2023-06-29T00:26:36.093Z,18.00
2023-06-29T00:29:02.886Z,18.00
2023-06-29T00:31:29.521Z,18.00
2023-06-29T00:33:57.616Z,18.10
2023-06-29T00:36:24.237Z,18.10
2023-06-29T00:38:50.860Z,18.10
2023-06-29T00:41:17.544Z,18.20
2023-06-29T00:43:44.168Z,18.20
2023-06-29T00:46:13.322Z,18.20
2023-06-29T00:48:46.116Z,18.20
2023-06-29T00:51:14.879Z,18.20
2023-06-29T00:53:41.518Z,18.30
2023-06-29T00:56:08.255Z,18.30
2023-06-29T00:58:34.932Z,18.30
2023-06-29T01:01:01.568Z,18.30
2023-06-29T01:03:31.348Z,18.40
2023-06-29T01:06:02.395Z,18.40
2023-06-29T01:08:32.214Z,18.40
2023-06-29T01:10:59.560Z,18.40
2023-06-29T01:13:26.717Z,18.40
2023-06-29T01:15:53.696Z,18.40
2023-06-29T01:18:20.819Z,18.40
2023-06-29T01:20:48.065Z,18.40
2023-06-29T01:23:19.402Z,18.40
2023-06-29T01:25:47.676Z,18.40
2023-06-29T01:28:16.697Z,18.40
2023-06-29T01:30:43.385Z,18.40
2023-06-29T01:33:10.272Z,18.50
2023-06-29T01:35:36.949Z,18.40
2023-06-29T01:38:07.807Z,18.40
2023-06-29T01:40:38.401Z,18.40
2023-06-29T01:43:06.668Z,18.50
2023-06-29T01:45:34.636Z,18.50
2023-06-29T01:48:07.716Z,18.50
2023-06-29T01:50:34.460Z,18.50
2023-06-29T01:53:02.180Z,18.50
2023-06-29T01:55:32.061Z,18.50
2023-06-29T01:58:01.753Z,18.60
2023-06-29T02:00:29.779Z,18.60
2023-06-29T02:02:56.573Z,18.50
2023-06-29T02:05:23.353Z,18.50
2023-06-29T02:07:52.310Z,18.50
2023-06-29T02:10:18.939Z,18.50
2023-06-29T02:12:45.583Z,18.50
2023-06-29T02:15:12.224Z,18.50
2023-06-29T02:17:42.804Z,18.50
2023-06-29T02:20:09.999Z,18.50
2023-06-29T02:22:36.696Z,18.50
2023-06-29T02:25:03.616Z,18.50
2023-06-29T02:27:30.242Z,18.60
2023-06-29T02:29:56.827Z,18.60
2023-06-29T02:32:23.531Z,18.60
2023-06-29T02:34:51.857Z,18.60
2023-06-29T02:37:18.516Z,18.60
2023-06-29T02:39:45.163Z,18.60
2023-06-29T02:42:11.826Z,18.60
2023-06-29T02:44:38.483Z,18.60
2023-06-29T02:47:05.425Z,18.60
2023-06-29T02:49:32.050Z,18.60
2023-06-29T02:52:00.098Z,18.60
2023-06-29T02:54:26.792Z,18.60
2023-06-29T02:56:53.429Z,18.60
2023-06-29T02:59:20.084Z,18.60
2023-06-29T03:01:49.315Z,18.50
2023-06-29T03:04:16.002Z,18.60
2023-06-29T03:06:42.643Z,18.50
2023-06-29T03:09:10.725Z,18.60
2023-06-29T03:11:42.030Z,18.60
2023-06-29T03:14:08.687Z,18.60
2023-06-29T03:16:38.121Z,18.60
2023-06-29T03:19:04.967Z,18.60
2023-06-29T03:21:31.777Z,18.60
2023-06-29T03:23:58.448Z,18.60
2023-06-29T03:26:26.390Z,18.60
2023-06-29T03:28:53.121Z,18.60
2023-06-29T03:31:19.815Z,18.60
2023-06-29T03:33:49.371Z,18.60
2023-06-29T03:36:18.912Z,18.60
2023-06-29T03:38:45.611Z,18.60
2023-06-29T03:41:12.364Z,18.60
2023-06-29T03:43:40.542Z,18.60
2023-06-29T03:46:07.176Z,18.60
2023-06-29T03:48:33.954Z,18.70
2023-06-29T03:51:05.759Z,18.60
2023-06-29T03:53:32.436Z,18.60
2023-06-29T03:55:59.110Z,18.60
2023-06-29T03:58:29.082Z,18.60
2023-06-29T04:00:57.125Z,18.70
2023-06-29T04:03:26.690Z,18.70
2023-06-29T04:05:59.071Z,18.70
2023-06-29T04:08:28.079Z,18.70
2023-06-29T04:10:54.802Z,18.70
2023-06-29T04:13:21.490Z,18.70
2023-06-29T04:15:48.118Z,18.70
2023-06-29T04:18:17.289Z,18.70
2023-06-29T04:20:43.976Z,18.70
2023-06-29T04:23:10.593Z,18.70
2023-06-29T04:25:37.206Z,18.70
2023-06-29T04:28:04.011Z,18.70
2023-06-29T04:30:30.704Z,18.70
2023-06-29T04:32:58.465Z,18.80
2023-06-29T04:35:28.534Z,18.80
2023-06-29T04:37:55.641Z,18.80
2023-06-29T04:40:22.394Z,18.90
2023-06-29T04:42:49.285Z,18.90
2023-06-29T04:45:16.257Z,19.00
2023-06-29T04:47:42.916Z,19.00
2023-06-29T04:50:12.675Z,19.10
2023-06-29T04:52:46.102Z,19.10
2023-06-29T04:55:12.773Z,19.10
2023-06-29T04:57:39.435Z,19.20
2023-06-29T05:00:06.694Z,19.20
2023-06-29T05:02:33.459Z,19.30
2023-06-29T05:05:00.184Z,19.30
2023-06-29T05:07:26.894Z,19.30
2023-06-29T05:09:54.914Z,19.30
2023-06-29T05:12:21.584Z,19.30
2023-06-29T05:14:48.276Z,19.30
2023-06-29T05:17:14.979Z,19.30
2023-06-29T05:19:41.658Z,19.40
2023-06-29T05:22:08.320Z,19.40
2023-06-29T05:24:34.944Z,19.50
2023-06-29T05:27:06.436Z,19.50
2023-06-29T05:29:33.115Z,19.60
2023-06-29T05:32:02.314Z,19.80
2023-06-29T05:34:29.010Z,19.90
2023-06-29T05:36:56.235Z,20.00
2023-06-29T05:39:23.738Z,20.00
2023-06-29T05:41:53.114Z,20.10
2023-06-29T05:44:25.622Z,20.10
2023-06-29T05:46:52.334Z,20.20
2023-06-29T05:49:18.981Z,20.20
2023-06-29T05:51:48.462Z,20.20
2023-06-29T05:54:19.553Z,20.10
2023-06-29T05:56:46.193Z,20.20
2023-06-29T05:59:12.870Z,20.10
2023-06-29T06:01:40.922Z,20.20
2023-06-29T06:04:07.788Z,20.30
2023-06-29T06:06:34.453Z,20.30
2023-06-29T06:09:01.125Z,20.30
2023-06-29T06:11:27.751Z,20.20
2023-06-29T06:13:54.408Z,20.10
2023-06-29T06:16:21.424Z,20.10
2023-06-29T06:18:49.584Z,20.00
2023-06-29T06:21:16.306Z,20.00
2023-06-29T06:23:43.065Z,20.00
2023-06-29T06:26:09.752Z,20.10
2023-06-29T06:28:39.158Z,20.10
2023-06-29T06:31:05.827Z,20.10
2023-06-29T06:33:32.757Z,20.20
2023-06-29T06:36:10.678Z,20.20
2023-06-29T06:38:49.553Z,20.30
2023-06-29T06:41:17.157Z,20.40
2023-06-29T06:43:43.804Z,20.30
2023-06-29T06:46:10.527Z,20.30
2023-06-29T06:48:37.401Z,20.30
2023-06-29T06:51:05.511Z,20.50
2023-06-29T06:53:32.475Z,20.60
2023-06-29T06:56:04.092Z,20.70
2023-06-29T06:58:30.771Z,20.80
2023-06-29T07:00:57.627Z,21.20
2023-06-29T07:03:24.391Z,21.40
2023-06-29T07:05:51.070Z,21.30
2023-06-29T07:08:20.676Z,21.20
2023-06-29T07:10:47.343Z,21.10
2023-06-29T07:13:13.987Z,21.10
2023-06-29T07:15:40.657Z,21.20
2023-06-29T07:18:07.370Z,21.20
2023-06-29T07:25:36.798Z,21.10
2023-06-29T07:28:03.593Z,21.10
2023-06-29T07:30:32.373Z,21.20
2023-06-29T07:33:01.579Z,21.40
2023-06-29T07:35:28.297Z,21.70
2023-06-29T07:37:54.944Z,21.90
2023-06-29T07:40:24.432Z,22.00
2023-06-29T07:42:55.785Z,21.90
2023-06-29T07:45:22.387Z,22.10
2023-06-29T07:47:49.161Z,22.20
2023-06-29T07:50:16.023Z,22.20
2023-06-29T07:52:42.983Z,22.00
2023-06-29T07:55:09.640Z,22.10
2023-06-29T08:00:08.112Z,22.30
2023-06-29T08:02:34.910Z,22.20
2023-06-29T08:07:31.343Z,22.30
2023-06-29T08:09:58.137Z,22.00
2023-06-29T08:12:27.559Z,22.30
2023-06-29T08:14:54.216Z,22.50
2023-06-29T08:17:22.210Z,22.50
2023-06-29T08:19:48.894Z,23.00
2023-06-29T08:22:15.589Z,23.50
2023-06-29T08:24:42.363Z,23.70
2023-06-29T08:27:13.698Z,23.70
2023-06-29T08:29:40.438Z,23.80
2023-06-29T08:32:09.545Z,24.10
2023-06-29T08:34:37.824Z,23.90
2023-06-29T08:37:04.795Z,23.80
2023-06-29T08:39:31.422Z,23.90
2023-06-29T08:42:02.309Z,23.90
2023-06-29T08:44:30.494Z,24.20
2023-06-29T08:46:58.274Z,24.60
2023-06-29T08:49:25.403Z,24.80
2023-06-29T08:51:55.633Z,25.00
2023-06-29T08:54:22.881Z,24.10
2023-06-29T08:56:49.717Z,24.00
2023-06-29T08:59:16.454Z,23.90
2023-06-29T09:01:46.928Z,23.70
2023-06-29T09:04:14.027Z,24.10
2023-06-29T09:06:40.668Z,24.00
2023-06-29T09:09:08.621Z,24.10
2023-06-29T09:11:35.958Z,24.10
2023-06-29T09:14:05.187Z,24.00
2023-06-29T09:16:31.905Z,24.50
2023-06-29T09:18:58.772Z,24.60
2023-06-29T09:21:26.629Z,24.80
2023-06-29T09:23:55.941Z,24.80
2023-06-29T09:26:24.819Z,25.10
2023-06-29T09:28:56.263Z,25.10
2023-06-29T09:31:22.996Z,25.20
2023-06-29T09:33:50.705Z,24.90
2023-06-29T09:36:17.465Z,25.40
2023-06-29T09:38:46.788Z,25.20
2023-06-29T09:41:15.239Z,25.20
2023-06-29T09:43:46.095Z,25.30
2023-06-29T09:46:12.906Z,25.40
2023-06-29T09:51:21.774Z,24.80
2023-06-29T09:53:48.670Z,24.80
2023-06-29T09:56:16.701Z,24.60
2023-06-29T09:58:44.721Z,25.30
2023-06-29T10:01:12.058Z,25.60
2023-06-29T10:03:38.781Z,25.30
2023-06-29T10:06:09.799Z,25.00
2023-06-29T10:08:40.233Z,25.00
2023-06-29T10:11:07.256Z,24.80
2023-06-29T10:13:37.852Z,24.90
2023-06-29T10:16:10.585Z,24.80
2023-06-29T10:18:40.232Z,25.10
2023-06-29T10:21:06.945Z,25.40
2023-06-29T10:23:34.091Z,26.10
2023-06-29T10:26:01.657Z,26.20
2023-06-29T10:28:28.458Z,26.00
2023-06-29T10:31:00.963Z,25.40
2023-06-29T10:33:29.123Z,24.60
2023-06-29T10:35:59.139Z,24.30
2023-06-29T10:38:31.640Z,25.00
2023-06-29T10:40:58.405Z,25.00
2023-06-29T10:43:25.925Z,25.00
2023-06-29T10:45:52.570Z,24.80
2023-06-29T10:48:31.212Z,24.20
2023-06-29T10:51:06.666Z,24.20
2023-06-29T10:53:35.573Z,24.00
2023-06-29T10:56:02.227Z,24.30
2023-06-29T10:58:33.931Z,24.40
2023-06-29T11:01:03.684Z,25.10
2023-06-29T11:03:36.137Z,25.30
2023-06-29T11:06:05.089Z,25.30
2023-06-29T11:08:31.873Z,25.10
2023-06-29T11:11:12.421Z,24.70
2023-06-29T11:13:39.264Z,24.70
2023-06-29T11:16:05.996Z,24.60
2023-06-29T11:18:32.736Z,25.00
2023-06-29T11:21:00.772Z,25.00
2023-06-29T11:23:34.955Z,24.80
2023-06-29T11:26:01.654Z,24.80
2023-06-29T11:28:31.274Z,24.60
2023-06-29T11:31:01.410Z,24.40
2023-06-29T11:33:34.319Z,24.50
2023-06-29T11:36:04.183Z,24.80
2023-06-29T11:38:31.117Z,25.20
2023-06-29T11:41:06.377Z,25.50
2023-06-29T11:43:35.328Z,25.80
2023-06-29T11:46:02.272Z,26.10
2023-06-29T11:48:30.027Z,25.60
2023-06-29T11:50:59.075Z,25.40
2023-06-29T11:53:26.056Z,24.90
2023-06-29T11:55:54.790Z,24.40
2023-06-29T11:58:23.106Z,24.40
2023-06-29T12:00:55.901Z,24.50
2023-06-29T12:03:24.121Z,24.60
2023-06-29T12:05:51.410Z,24.20
2023-06-29T12:08:19.644Z,24.30
2023-06-29T12:10:46.368Z,24.30
2023-06-29T12:13:13.322Z,24.80
2023-06-29T12:18:36.427Z,25.20
2023-06-29T12:21:03.880Z,25.10
2023-06-29T12:23:30.874Z,25.10
2023-06-29T12:25:57.513Z,25.80
2023-06-29T12:28:24.198Z,26.00
2023-06-29T12:30:52.593Z,25.90
2023-06-29T12:33:19.250Z,26.30
2023-06-29T12:35:46.142Z,26.40
2023-06-29T12:38:13.231Z,26.10
2023-06-29T12:40:43.071Z,26.00
2023-06-29T12:43:09.785Z,26.40
2023-06-29T12:45:36.492Z,27.00
2023-06-29T12:48:05.129Z,27.30
2023-06-29T12:50:34.624Z,26.40
2023-06-29T12:53:01.260Z,26.60
2023-06-29T12:55:27.950Z,26.80
2023-06-29T12:57:54.626Z,27.20
2023-06-29T13:00:21.265Z,26.90
2023-06-29T13:02:48.099Z,26.40
2023-06-29T13:05:16.253Z,26.40
2023-06-29T13:07:42.990Z,26.40
2023-06-29T13:10:10.261Z,26.80
2023-06-29T13:12:36.906Z,26.80
2023-06-29T13:15:03.825Z,27.00
2023-06-29T13:17:30.464Z,27.30
2023-06-29T13:19:57.149Z,27.20
2023-06-29T13:22:25.141Z,25.90
2023-06-29T13:24:51.821Z,25.60
2023-06-29T13:27:18.495Z,25.10
2023-06-29T13:29:45.195Z,24.50
2023-06-29T13:32:11.919Z,24.20
2023-06-29T13:34:38.583Z,23.90
2023-06-29T13:37:05.562Z,23.70
2023-06-29T13:39:33.595Z,23.50
2023-06-29T13:42:00.324Z,23.10
2023-06-29T13:44:26.988Z,22.80
2023-06-29T13:46:53.792Z,22.40
2023-06-29T13:49:21.016Z,22.10
2023-06-29T13:51:50.212Z,21.90
2023-06-29T13:54:17.058Z,21.60
2023-06-29T13:56:45.128Z,21.30
2023-06-29T13:59:15.763Z,21.10
2023-06-29T14:01:42.570Z,20.90
2023-06-29T14:04:10.441Z,20.60
2023-06-29T14:06:37.794Z,20.40
2023-06-29T14:09:05.625Z,20.20
2023-06-29T14:11:32.339Z,20.00
2023-06-29T14:14:02.035Z,20.00
2023-06-29T14:16:36.308Z,19.90
2023-06-29T14:19:04.233Z,19.70
2023-06-29T14:21:31.357Z,19.90
2023-06-29T14:24:00.410Z,19.90
2023-06-29T14:26:28.421Z,19.90
2023-06-29T14:28:56.109Z,20.00
2023-06-29T14:31:24.961Z,20.20
2023-06-29T14:33:51.677Z,20.50
2023-06-29T14:36:18.385Z,20.70
2023-06-29T14:38:45.095Z,20.90
2023-06-29T14:42:25.602Z,21.00
2023-06-29T14:44:52.435Z,21.50
2023-06-29T14:47:19.253Z,21.80
2023-06-29T14:49:46.153Z,22.10
2023-06-29T14:52:12.982Z,22.30
2023-06-29T14:54:39.949Z,22.50
2023-06-29T14:57:06.973Z,22.50
2023-06-29T14:59:35.729Z,23.10
2023-06-29T15:02:02.695Z,23.20
2023-06-29T15:04:29.463Z,23.30
2023-06-29T15:06:56.231Z,23.30
2023-06-29T15:09:23.008Z,23.00
2023-06-29T15:11:49.827Z,22.70
2023-06-29T15:14:16.682Z,22.80
2023-06-29T15:16:44.860Z,22.70
2023-06-29T15:19:11.818Z,22.50
2023-06-29T15:21:38.676Z,22.30
2023-06-29T15:24:05.662Z,22.30
2023-06-29T15:26:32.404Z,22.40
2023-06-29T15:28:59.205Z,22.70
2023-06-29T15:31:26.050Z,22.90
2023-06-29T15:33:54.248Z,23.10
2023-06-29T15:36:21.038Z,23.30
2023-06-29T15:38:47.906Z,23.40
2023-06-29T15:41:14.783Z,23.40
2023-06-29T15:43:41.571Z,23.50
2023-06-29T15:46:08.352Z,23.60
2023-06-29T15:48:35.438Z,24.00
2023-06-29T15:51:03.779Z,24.00
2023-06-29T15:53:30.561Z,24.00
2023-06-29T15:55:57.407Z,23.80
2023-06-29T15:58:24.309Z,23.70
2023-06-29T16:00:51.152Z,23.50
2023-06-29T16:03:18.086Z,23.20
2023-06-29T16:05:45.163Z,23.00
2023-06-29T16:08:13.519Z,23.10
2023-06-29T16:10:41.165Z,23.30
2023-06-29T16:13:08.093Z,23.50
2023-06-29T16:15:34.916Z,23.20
2023-06-29T16:18:01.803Z,23.30
2023-06-29T16:20:28.693Z,23.50
2023-06-29T16:22:55.564Z,23.60
2023-06-29T16:25:23.843Z,23.60
2023-06-29T16:27:50.917Z,23.60
2023-06-29T16:30:17.696Z,23.70
2023-06-29T16:32:44.614Z,23.70
2023-06-29T16:35:12.556Z,23.70
2023-06-29T16:37:39.570Z,23.60
2023-06-29T16:40:08.108Z,23.60
2023-06-29T16:42:36.238Z,23.40
2023-06-29T16:45:03.153Z,23.20
2023-06-29T16:47:29.976Z,23.00
2023-06-29T16:49:56.815Z,22.70
2023-06-29T16:52:23.585Z,22.60
2023-06-29T16:54:50.354Z,22.40
2023-06-29T16:57:17.157Z,22.20
2023-06-29T16:59:45.332Z,22.10
2023-06-29T17:02:12.234Z,21.90
2023-06-29T17:04:39.152Z,21.50
2023-06-29T17:07:06.301Z,21.40
2023-06-29T17:09:33.188Z,21.20
2023-06-29T17:12:00.074Z,21.20
2023-06-29T17:14:26.886Z,21.20
2023-06-29T17:16:55.181Z,21.20
2023-06-29T17:19:22.183Z,21.10
2023-06-29T17:21:49.028Z,21.00
2023-06-29T17:24:15.924Z,21.10
2023-06-29T17:26:42.697Z,21.20
2023-06-29T17:29:10.031Z,21.00
2023-06-29T17:31:37.086Z,21.00
2023-06-29T17:34:05.901Z,21.00
2023-06-29T17:36:32.806Z,20.90
2023-06-29T17:38:59.697Z,21.00
2023-06-29T17:41:26.558Z,20.90
2023-06-29T17:43:53.349Z,20.90
2023-06-29T17:46:20.396Z,20.80
2023-06-29T17:48:47.619Z,20.70
2023-06-29T17:51:17.652Z,20.60
2023-06-29T17:53:46.503Z,20.40
2023-06-29T17:56:13.990Z,20.30
2023-06-29T17:58:40.786Z,20.20
2023-06-29T18:01:07.540Z,19.90
2023-06-29T18:03:34.548Z,19.50
2023-06-29T18:06:02.451Z,19.30
2023-06-29T18:08:30.618Z,19.20
2023-06-29T18:10:57.442Z,19.10
2023-06-29T18:13:24.347Z,18.90
2023-06-29T18:15:51.291Z,18.70
2023-06-29T18:18:18.301Z,18.60
2023-06-29T18:20:45.087Z,18.60
2023-06-29T18:23:11.868Z,18.60
2023-06-29T18:25:40.059Z,18.50
2023-06-29T18:28:07.135Z,18.50
2023-06-29T18:30:33.919Z,18.30
2023-06-29T18:33:00.792Z,18.30
2023-06-29T18:35:27.805Z,18.20
2023-06-29T18:37:54.581Z,18.20
2023-06-29T18:40:21.627Z,18.20
2023-06-29T18:42:49.757Z,18.10
2023-06-29T18:45:16.880Z,18.10
2023-06-29T18:47:43.814Z,18.10
2023-06-29T18:50:11.542Z,18.00
2023-06-29T18:52:38.359Z,18.00
2023-06-29T18:55:05.789Z,17.90
2023-06-29T18:57:32.660Z,17.70
2023-06-29T19:00:00.931Z,17.50
2023-06-29T19:02:27.870Z,17.20
2023-06-29T19:04:54.700Z,17.10
2023-06-29T19:07:21.557Z,17.00
2023-06-29T19:09:48.436Z,16.90
2023-06-29T19:12:15.296Z,16.80
2023-06-29T19:14:42.106Z,16.70
2023-06-29T19:17:10.431Z,16.60
2023-06-29T19:19:37.676Z,16.50
2023-06-29T19:22:04.754Z,16.60
2023-06-29T19:24:31.537Z,16.60
2023-06-29T19:26:58.317Z,16.60
2023-06-29T19:29:25.114Z,16.70
2023-06-29T19:31:51.996Z,16.60
2023-06-29T19:34:20.190Z,16.60
2023-06-29T19:36:46.993Z,16.60
2023-06-29T19:39:13.823Z,16.60
2023-06-29T19:41:40.653Z,16.50
2023-06-29T19:44:07.787Z,16.60
2023-06-29T19:46:34.675Z,16.60
2023-06-29T19:49:01.534Z,16.60
2023-06-29T19:51:29.636Z,16.60
2023-06-29T19:53:56.441Z,16.60
2023-06-29T19:56:23.285Z,16.70
2023-06-29T19:58:50.106Z,16.70
2023-06-29T20:01:17.050Z,16.70
2023-06-29T20:03:43.933Z,16.70
2023-06-29T20:06:10.805Z,16.70
2023-06-29T20:08:38.947Z,16.70
2023-06-29T20:11:05.788Z,16.70
2023-06-29T20:13:32.625Z,16.60
2023-06-29T20:15:59.468Z,16.50
2023-06-29T20:18:26.265Z,16.40
2023-06-29T20:20:53.196Z,16.30
2023-06-29T20:23:20.889Z,16.30
2023-06-29T20:25:50.493Z,16.20
2023-06-29T20:28:17.233Z,16.10
2023-06-29T20:30:43.975Z,16.00
2023-06-29T20:33:10.876Z,16.00
2023-06-29T20:35:37.739Z,15.90
2023-06-29T20:38:04.628Z,15.90
2023-06-29T20:40:31.512Z,15.80
2023-06-29T20:43:00.463Z,15.80
2023-06-29T20:45:27.169Z,15.80
2023-06-29T20:47:54.196Z,15.70
2023-06-29T20:50:21.104Z,15.70
2023-06-29T20:52:47.859Z,15.70
2023-06-29T20:55:14.939Z,15.70
2023-06-29T20:57:41.725Z,15.70
2023-06-29T21:00:11.543Z,15.70
2023-06-29T21:02:38.594Z,15.60
2023-06-29T21:05:06.047Z,15.70
2023-06-29T21:07:33.164Z,15.70
2023-06-29T21:10:00.034Z,15.70
2023-06-29T21:12:27.244Z,15.70
2023-06-29T21:14:54.472Z,15.70
2023-06-29T21:17:23.428Z,15.70
2023-06-29T21:19:50.918Z,15.70
2023-06-29T21:22:18.531Z,15.70
2023-06-29T21:24:45.856Z,15.70
2023-06-29T21:27:14.412Z,15.70
2023-06-29T21:29:45.372Z,15.70
2023-06-29T21:32:12.979Z,15.70
2023-06-29T21:34:42.220Z,15.70
2023-06-29T21:37:10.052Z,15.70
2023-06-29T21:39:36.830Z,15.70
2023-06-29T21:42:04.350Z,15.70
2023-06-29T21:44:31.168Z,15.70
2023-06-29T21:46:58.048Z,15.70
2023-06-29T21:49:24.901Z,15.70
2023-06-29T21:51:53.065Z,15.70
2023-06-29T21:54:19.934Z,15.60
2023-06-29T21:56:48.618Z,15.60
2023-06-29T21:59:15.406Z,15.70
2023-06-29T22:01:42.239Z,15.60
2023-06-29T22:04:09.107Z,15.70
2023-06-29T22:06:35.921Z,15.70
2023-06-29T22:09:04.274Z,15.70
2023-06-29T22:11:31.281Z,15.70
2023-06-29T22:13:58.157Z,15.70
2023-06-29T22:16:25.152Z,15.80
2023-06-29T22:18:52.367Z,15.80
2023-06-29T22:21:20.170Z,15.80
2023-06-29T22:23:47.278Z,15.80
2023-06-29T22:26:15.423Z,15.80
2023-06-29T22:28:42.180Z,15.80
2023-06-29T22:31:09.082Z,15.80
2023-06-29T22:33:35.898Z,15.80
2023-06-29T22:36:02.772Z,15.80
2023-06-29T22:38:30.293Z,15.80
2023-06-29T22:40:57.042Z,15.80
2023-06-29T22:43:25.170Z,15.80
2023-06-29T22:45:52.045Z,15.80
2023-06-29T22:48:19.659Z,15.80
2023-06-29T22:50:46.462Z,15.80
2023-06-29T22:53:13.242Z,15.70
2023-06-29T22:55:40.235Z,15.70
2023-06-29T22:58:07.012Z,15.70
2023-06-29T23:00:35.119Z,15.70
2023-06-29T23:03:02.061Z,15.70
2023-06-29T23:05:28.885Z,15.60
2023-06-29T23:07:55.671Z,15.60
2023-06-29T23:10:22.439Z,15.60
2023-06-29T23:12:49.226Z,15.50
2023-06-29T23:15:16.875Z,15.60
2023-06-29T23:17:45.273Z,15.50
2023-06-29T23:20:12.273Z,15.60
2023-06-29T23:22:39.191Z,15.50
2023-06-29T23:25:07.376Z,15.50
2023-06-29T23:27:34.526Z,15.50
2023-06-29T23:30:01.301Z,15.40
2023-06-29T23:32:28.115Z,15.40
2023-06-29T23:34:56.278Z,15.40
2023-06-29T23:37:23.136Z,15.30
2023-06-29T23:39:49.929Z,15.30
2023-06-29T23:42:16.945Z,15.30
2023-06-29T23:44:43.733Z,15.20
2023-06-29T23:47:10.481Z,15.20
2023-06-29T23:49:37.272Z,15.20
2023-06-29T23:52:06.602Z,15.20
2023-06-29T23:54:33.448Z,15.20
2023-06-29T23:57:00.222Z,15.20
2023-06-29T23:59:26.976Z,15.10
